createdAt,value
2022-10-06T14:35:14.560Z,100276.25
2022-10-06T14:37:42.610Z,100315.25
2022-10-06T14:40:12.240Z,100318.16
2022-10-06T14:42:40.597Z,100300.72
2022-10-06T14:45:09.118Z,100255.16
2022-10-06T14:47:38.405Z,100346.34
2022-10-06T14:50:07.551Z,100328.56
2022-10-06T14:52:36.202Z,100291.03
2022-10-06T14:55:05.223Z,100342.59
2022-10-06T14:57:34.642Z,100273.81
2022-10-06T15:00:03.549Z,100353.38
2022-10-06T15:02:31.666Z,100289.19
2022-10-06T15:04:59.793Z,100331.84
2022-10-06T15:07:46.510Z,100342.84
2022-10-06T15:10:14.783Z,100361.38
2022-10-06T15:12:42.821Z,100358.34
2022-10-06T15:15:11.110Z,100336.09
2022-10-06T15:17:39.512Z,100373.97
2022-10-06T15:20:08.510Z,100369.13
2022-10-06T15:22:36.437Z,100371.84
2022-10-06T15:25:05.766Z,100302.03
2022-10-06T15:27:52.468Z,100335.44
2022-10-06T15:30:21.335Z,100386.03
2022-10-06T15:32:49.845Z,100350.63
2022-10-06T15:35:17.744Z,100382.41
2022-10-06T15:37:46.076Z,100373.69
2022-10-06T15:40:14.454Z,100384.63
2022-10-06T15:42:42.387Z,100387.88
2022-10-06T15:45:10.936Z,100389.63
2022-10-06T15:47:38.828Z,100366.94
2022-10-06T15:50:07.198Z,100385.09
2022-10-06T15:52:35.617Z,100396.72
2022-10-06T15:55:03.825Z,100392.56
2022-10-06T15:57:31.776Z,100405.31
2022-10-06T16:00:03.097Z,100399.78
2022-10-06T16:02:40.395Z,100409.06
2022-10-06T16:05:09.002Z,100397.59
2022-10-06T16:07:36.892Z,100417.44
2022-10-06T16:10:05.339Z,100370.88
2022-10-06T16:12:33.753Z,100421.66
2022-10-06T16:15:01.581Z,100379.41
2022-10-06T16:17:29.429Z,100426.19
2022-10-06T16:19:57.926Z,100442.28
2022-10-06T16:22:25.739Z,100433.47
2022-10-06T16:24:53.631Z,100435.81
2022-10-06T16:27:21.960Z,100443.88
2022-10-06T16:29:49.842Z,100451.94
2022-10-06T16:32:17.669Z,100454.69
2022-10-06T16:34:50.552Z,100457.41
2022-10-06T16:37:18.474Z,100460.44
2022-10-06T16:39:47.540Z,100466.00
2022-10-06T16:42:15.675Z,100463.16
2022-10-06T16:44:43.523Z,100470.91
2022-10-06T16:47:11.590Z,100476.28
2022-10-06T16:49:39.706Z,100485.53
2022-10-06T16:52:07.681Z,100483.00
2022-10-06T16:54:35.886Z,100489.06
2022-10-06T16:57:06.918Z,100487.22
2022-10-06T16:59:35.012Z,100495.75
2022-10-06T17:02:03.176Z,100477.56
2022-10-06T17:04:31.274Z,100493.06
2022-10-06T17:06:59.374Z,100506.50
2022-10-06T17:09:29.849Z,100497.06
2022-10-06T17:12:03.400Z,100488.66
2022-10-06T17:14:33.352Z,100499.00
2022-10-06T17:17:01.638Z,100495.03
2022-10-06T17:19:31.145Z,100510.44
2022-10-06T17:22:00.090Z,100485.50
2022-10-06T17:24:29.783Z,100479.50
2022-10-06T17:26:59.229Z,100482.81
2022-10-06T17:29:27.518Z,100494.41
2022-10-06T17:32:00.243Z,100495.53
2022-10-06T17:34:33.483Z,100434.13
2022-10-06T17:37:02.586Z,100500.63
2022-10-06T17:39:31.412Z,100540.44
2022-10-06T17:41:59.962Z,100505.63
2022-10-06T17:44:29.429Z,100546.00
2022-10-06T17:47:00.805Z,100550.63
2022-10-06T17:49:32.930Z,100540.88
2022-10-06T17:52:01.529Z,100536.75
2022-10-06T17:54:32.072Z,100532.13
2022-10-06T17:57:00.416Z,100561.13
2022-10-06T17:59:31.543Z,100528.13
2022-10-06T18:02:07.310Z,100551.06
2022-10-06T18:04:39.000Z,100539.47
2022-10-06T18:07:08.651Z,100535.63
2022-10-06T18:09:36.589Z,100525.28
2022-10-06T18:12:05.116Z,100574.63
2022-10-06T18:14:33.761Z,100573.94
2022-10-06T18:17:04.071Z,100563.22
2022-10-06T18:19:35.102Z,100554.28
2022-10-06T18:22:11.763Z,100551.00
2022-10-06T18:24:40.748Z,100595.91
2022-10-06T18:27:09.205Z,100566.00
2022-10-06T18:29:38.792Z,100597.41
2022-10-06T18:37:44.582Z,100622.13
2022-10-06T18:40:14.991Z,100621.28
2022-10-06T18:42:43.188Z,100624.97
2022-10-06T18:45:33.211Z,100615.75
2022-10-06T18:48:22.325Z,100640.50
2022-10-06T18:51:01.153Z,100634.88
2022-10-06T18:53:32.721Z,100633.06
2022-10-06T18:56:01.107Z,100616.56
2022-10-06T18:58:30.159Z,100642.34
2022-10-06T19:01:03.724Z,100631.38
2022-10-06T19:03:32.163Z,100617.28
2022-10-06T19:06:00.341Z,100651.09
2022-10-06T19:08:28.397Z,100649.38
2022-10-06T19:11:17.428Z,100661.75
2022-10-06T19:13:49.576Z,100670.75
2022-10-06T19:16:18.680Z,100619.31
2022-10-06T19:18:47.426Z,100669.06
2022-10-06T19:21:15.583Z,100671.88
2022-10-06T19:23:44.156Z,100637.38
2022-10-06T19:26:13.261Z,100626.69
2022-10-06T19:28:41.602Z,100680.59
2022-10-06T19:31:20.224Z,100659.34
2022-10-06T19:33:49.177Z,100654.72
2022-10-06T19:36:17.750Z,100687.34
2022-10-06T19:38:45.870Z,100688.50
2022-10-06T19:41:33.422Z,100644.97
2022-10-06T19:44:04.188Z,100619.38
2022-10-06T19:46:32.125Z,100699.75
2022-10-06T19:49:05.872Z,100710.53
2022-10-06T19:51:35.192Z,100693.50
2022-10-06T19:54:04.861Z,100722.47
2022-10-06T19:56:33.519Z,100674.69
2022-10-06T19:59:03.542Z,100676.16
2022-10-06T20:01:32.582Z,100687.28
2022-10-06T20:04:04.079Z,100726.53
2022-10-06T20:06:35.995Z,100683.56
2022-10-06T20:09:09.536Z,100677.88
2022-10-06T20:11:41.608Z,100671.69
2022-10-06T20:14:20.567Z,100691.69
2022-10-06T20:16:51.964Z,100730.19
2022-10-06T20:19:33.533Z,100736.13
2022-10-06T20:22:06.894Z,100731.16
2022-10-06T20:24:35.433Z,100694.19
2022-10-06T20:27:03.389Z,100744.97
2022-10-06T20:29:31.972Z,100744.34
2022-10-06T20:32:00.285Z,100742.41
2022-10-06T20:34:33.238Z,100714.16
2022-10-06T20:37:03.614Z,100753.16
2022-10-06T20:39:52.588Z,100764.91
2022-10-06T20:42:21.805Z,100715.09
2022-10-06T20:44:50.085Z,100721.34
2022-10-06T20:47:18.498Z,100743.31
2022-10-06T20:49:46.803Z,100761.34
2022-10-06T20:52:15.075Z,100761.28
2022-10-06T20:54:43.415Z,100762.38
2022-10-06T20:57:12.579Z,100765.38
2022-10-06T20:59:40.766Z,100756.34
2022-10-06T21:02:11.205Z,100772.56
2022-10-06T21:04:43.807Z,100768.88
2022-10-06T21:07:12.750Z,100773.81
2022-10-06T21:09:41.240Z,100735.44
2022-10-06T21:12:09.521Z,100783.38
2022-10-06T21:14:38.077Z,100785.22
2022-10-06T21:17:06.015Z,100790.03
2022-10-06T21:19:38.222Z,100787.38
2022-10-06T21:22:07.006Z,100791.44
2022-10-06T21:24:35.049Z,100792.47
2022-10-06T21:27:03.390Z,100793.13
2022-10-06T21:29:31.658Z,100790.63
2022-10-06T21:31:59.823Z,100745.53
2022-10-06T21:34:28.104Z,100809.97
2022-10-06T21:36:56.505Z,100799.56
2022-10-06T21:39:24.466Z,100799.94
2022-10-06T21:41:52.438Z,100795.50
2022-10-06T21:44:20.606Z,100796.34
2022-10-06T21:46:54.901Z,100803.16
2022-10-06T21:49:24.860Z,100801.22
2022-10-06T21:51:55.566Z,100803.34
2022-10-06T21:54:24.274Z,100800.81
2022-10-06T21:56:52.715Z,100755.47
2022-10-06T21:59:21.062Z,100805.94
2022-10-06T22:01:52.206Z,100806.00
2022-10-06T22:04:20.178Z,100804.31
2022-10-06T22:06:52.043Z,100802.75
2022-10-06T22:09:21.010Z,100801.03
2022-10-06T22:11:50.034Z,100810.50
2022-10-06T22:14:20.379Z,100805.06
2022-10-06T22:16:48.996Z,100813.16
2022-10-06T22:19:18.237Z,100796.78
2022-10-06T22:21:49.013Z,100817.50
2022-10-06T22:24:20.376Z,100809.63
2022-10-06T22:27:01.434Z,100822.81
2022-10-06T22:29:29.547Z,100812.41
2022-10-06T22:31:58.764Z,100812.00
2022-10-06T22:34:27.597Z,100807.41
2022-10-06T22:36:55.706Z,100803.03
2022-10-06T22:39:23.509Z,100818.19
2022-10-06T22:41:51.603Z,100773.03
2022-10-06T22:44:20.292Z,100785.03
2022-10-06T22:46:48.347Z,100823.19
2022-10-06T22:49:16.399Z,100732.50
2022-10-06T22:51:44.658Z,100807.94
2022-10-06T22:54:18.909Z,100780.94
2022-10-06T22:56:47.042Z,100819.91
2022-10-06T22:59:15.338Z,100818.41
2022-10-06T23:01:43.325Z,100827.34
2022-10-06T23:04:11.548Z,100786.19
2022-10-06T23:06:39.427Z,100800.19
2022-10-06T23:09:07.728Z,100788.94
2022-10-06T23:11:36.155Z,100810.16
2022-10-06T23:14:03.998Z,100833.34
2022-10-06T23:16:31.886Z,100798.25
2022-10-06T23:19:01.042Z,100832.47
2022-10-06T23:21:28.923Z,100791.13
2022-10-06T23:24:00.151Z,100833.31
2022-10-06T23:26:28.511Z,100759.13
2022-10-06T23:29:01.339Z,100840.53
2022-10-06T23:31:30.114Z,100835.91
2022-10-06T23:33:58.591Z,100829.75
2022-10-06T23:36:26.506Z,100837.25
2022-10-06T23:38:54.719Z,100838.38
2022-10-06T23:41:23.022Z,100841.50
2022-10-06T23:43:51.170Z,100828.63
2022-10-06T23:46:19.211Z,100838.09
2022-10-06T23:48:48.508Z,100844.41
2022-10-06T23:51:17.086Z,100849.34
2022-10-06T23:53:45.771Z,100811.31
2022-10-06T23:56:14.501Z,100831.25
2022-10-06T23:58:42.899Z,100864.19
